sensor_id;sensor_type;location;lat;lon;timestamp;pressure;altitude;pressure_sealevel;temperature;humidity
17060;BME280;8646;49.716;9.266;2023-04-12T00:00:19;99799.94;;;8.52;76.95
17060;BME280;8646;49.716;9.266;2023-04-12T00:03:22;99790.94;;;8.73;76.95
17060;BME280;8646;49.716;9.266;2023-04-12T00:06:25;99779.88;;;8.59;77.42
17060;BME280;8646;49.716;9.266;2023-04-12T00:09:33;99781.22;;;8.49;77.31
17060;BME280;8646;49.716;9.266;2023-04-12T00:12:38;99777.56;;;8.50;77.38
17060;BME280;8646;49.716;9.266;2023-04-12T00:15:42;99764.22;;;8.47;77.05
17060;BME280;8646;49.716;9.266;2023-04-12T00:18:45;99760.44;;;8.51;76.92
17060;BME280;8646;49.716;9.266;2023-04-12T00:21:47;99749.94;;;8.65;77.23
17060;BME280;8646;49.716;9.266;2023-04-12T00:24:50;99747.25;;;8.65;77.49
17060;BME280;8646;49.716;9.266;2023-04-12T00:27:56;99744.38;;;8.68;77.80
17060;BME280;8646;49.716;9.266;2023-04-12T00:30:59;99738.38;;;8.62;78.35
17060;BME280;8646;49.716;9.266;2023-04-12T00:34:02;99736.56;;;8.62;77.97
17060;BME280;8646;49.716;9.266;2023-04-12T00:37:05;99734.81;;;8.61;77.62
17060;BME280;8646;49.716;9.266;2023-04-12T00:40:08;99729.91;;;8.71;77.44
17060;BME280;8646;49.716;9.266;2023-04-12T00:43:12;99719.84;;;8.74;77.13
17060;BME280;8646;49.716;9.266;2023-04-12T00:46:19;99724.44;;;8.72;77.12
17060;BME280;8646;49.716;9.266;2023-04-12T00:49:22;99723.50;;;8.73;76.72
17060;BME280;8646;49.716;9.266;2023-04-12T00:52:24;99727.72;;;8.79;76.66
17060;BME280;8646;49.716;9.266;2023-04-12T00:55:28;99730.09;;;8.87;76.76
17060;BME280;8646;49.716;9.266;2023-04-12T00:58:33;99720.75;;;8.94;77.16
17060;BME280;8646;49.716;9.266;2023-04-12T01:01:36;99717.94;;;8.76;77.61
17060;BME280;8646;49.716;9.266;2023-04-12T01:04:42;99724.91;;;8.82;77.61
17060;BME280;8646;49.716;9.266;2023-04-12T01:07:50;99717.81;;;8.79;77.73
17060;BME280;8646;49.716;9.266;2023-04-12T01:11:08;99716.88;;;8.80;78.28
17060;BME280;8646;49.716;9.266;2023-04-12T01:14:21;99696.34;;;8.58;78.45
17060;BME280;8646;49.716;9.266;2023-04-12T01:17:28;99693.97;;;8.50;78.80
17060;BME280;8646;49.716;9.266;2023-04-12T01:20:34;99715.88;;;8.63;78.88
17060;BME280;8646;49.716;9.266;2023-04-12T01:27:02;99693.56;;;8.59;79.11
17060;BME280;8646;49.716;9.266;2023-04-12T01:30:11;99693.13;;;8.68;78.79
17060;BME280;8646;49.716;9.266;2023-04-12T01:33:15;99693.13;;;8.68;79.01
17060;BME280;8646;49.716;9.266;2023-04-12T01:36:21;99687.06;;;8.63;79.19
17060;BME280;8646;49.716;9.266;2023-04-12T01:39:24;99680.28;;;8.75;79.67
17060;BME280;8646;49.716;9.266;2023-04-12T01:42:27;99682.50;;;8.65;80.01
17060;BME280;8646;49.716;9.266;2023-04-12T01:45:32;99676.28;;;8.63;80.04
17060;BME280;8646;49.716;9.266;2023-04-12T01:48:35;99666.19;;;8.48;80.65
17060;BME280;8646;49.716;9.266;2023-04-12T01:51:49;99660.88;;;8.47;81.11
17060;BME280;8646;49.716;9.266;2023-04-12T01:54:56;99667.81;;;8.32;81.48
17060;BME280;8646;49.716;9.266;2023-04-12T01:58:01;99666.09;;;8.29;81.64
17060;BME280;8646;49.716;9.266;2023-04-12T02:01:06;99657.75;;;8.35;81.63
17060;BME280;8646;49.716;9.266;2023-04-12T02:04:10;99657.75;;;8.35;81.63
17060;BME280;8646;49.716;9.266;2023-04-12T02:07:14;99643.56;;;8.32;81.67
17060;BME280;8646;49.716;9.266;2023-04-12T02:10:26;99645.25;;;8.34;81.96
17060;BME280;8646;49.716;9.266;2023-04-12T02:13:29;99643.56;;;8.32;82.01
17060;BME280;8646;49.716;9.266;2023-04-12T02:16:41;99636.34;;;8.32;82.09
17060;BME280;8646;49.716;9.266;2023-04-12T02:19:45;99625.94;;;8.23;82.60
17060;BME280;8646;49.716;9.266;2023-04-12T02:22:48;99624.19;;;8.22;83.06
17060;BME280;8646;49.716;9.266;2023-04-12T02:25:54;99622.75;;;8.14;83.58
17060;BME280;8646;49.716;9.266;2023-04-12T02:28:56;99617.09;;;8.20;84.18
17060;BME280;8646;49.716;9.266;2023-04-12T02:32:00;99616.16;;;8.21;84.04
17060;BME280;8646;49.716;9.266;2023-04-12T02:35:04;99601.34;;;8.11;84.26
17060;BME280;8646;49.716;9.266;2023-04-12T02:38:08;99599.09;;;8.20;84.77
17060;BME280;8646;49.716;9.266;2023-04-12T02:41:16;99593.72;;;8.20;84.47
17060;BME280;8646;49.716;9.266;2023-04-12T02:44:19;99600.38;;;8.12;85.25
17060;BME280;8646;49.716;9.266;2023-04-12T02:47:23;99593.34;;;8.09;85.51
17060;BME280;8646;49.716;9.266;2023-04-12T02:50:29;99579.84;;;8.09;86.02
17060;BME280;8646;49.716;9.266;2023-04-12T02:53:31;99570.06;;;8.07;86.29
17060;BME280;8646;49.716;9.266;2023-04-12T02:56:34;99562.81;;;8.09;86.37
17060;BME280;8646;49.716;9.266;2023-04-12T02:59:38;99561.19;;;8.04;86.74
17060;BME280;8646;49.716;9.266;2023-04-12T03:02:42;99550.28;;;8.08;87.25
17060;BME280;8646;49.716;9.266;2023-04-12T03:05:45;99566.50;;;8.06;87.75
17060;BME280;8646;49.716;9.266;2023-04-12T03:08:48;99552.91;;;8.09;88.04
17060;BME280;8646;49.716;9.266;2023-04-12T03:11:51;99548.66;;;8.03;88.25
17060;BME280;8646;49.716;9.266;2023-04-12T03:14:54;99540.44;;;8.07;88.29
17060;BME280;8646;49.716;9.266;2023-04-12T03:17:58;99536.94;;;8.04;88.58
17060;BME280;8646;49.716;9.266;2023-04-12T03:21:01;99532.13;;;8.11;88.78
17060;BME280;8646;49.716;9.266;2023-04-12T03:24:04;99523.34;;;8.08;88.96
17060;BME280;8646;49.716;9.266;2023-04-12T03:27:07;99528.38;;;7.95;89.51
17060;BME280;8646;49.716;9.266;2023-04-12T03:30:11;99514.59;;;8.02;89.34
17060;BME280;8646;49.716;9.266;2023-04-12T03:33:15;99511.22;;;7.97;89.88
17060;BME280;8646;49.716;9.266;2023-04-12T03:36:17;99507.28;;;8.04;89.84
17060;BME280;8646;49.716;9.266;2023-04-12T03:39:21;99504.81;;;8.00;90.28
17060;BME280;8646;49.716;9.266;2023-04-12T03:42:24;99505.13;;;8.13;89.92
17060;BME280;8646;49.716;9.266;2023-04-12T03:45:34;99499.38;;;8.01;89.94
17060;BME280;8646;49.716;9.266;2023-04-12T03:48:38;99493.69;;;8.08;89.87
17060;BME280;8646;49.716;9.266;2023-04-12T03:51:41;99485.72;;;8.04;90.16
17060;BME280;8646;49.716;9.266;2023-04-12T03:54:44;99487.13;;;7.94;90.23
17060;BME280;8646;49.716;9.266;2023-04-12T03:57:47;99476.88;;;8.02;90.50
17060;BME280;8646;49.716;9.266;2023-04-12T04:00:53;99478.75;;;8.00;90.23
17060;BME280;8646;49.716;9.266;2023-04-12T04:03:58;99471.19;;;8.09;89.96
17060;BME280;8646;49.716;9.266;2023-04-12T04:07:01;99457.44;;;8.15;89.72
17060;BME280;8646;49.716;9.266;2023-04-12T04:10:05;99457.66;;;8.29;89.50
17060;BME280;8646;49.716;9.266;2023-04-12T04:13:08;99458.81;;;8.23;89.64
17060;BME280;8646;49.716;9.266;2023-04-12T04:16:11;99454.19;;;8.27;89.39
17060;BME280;8646;49.716;9.266;2023-04-12T04:19:15;99439.31;;;8.37;89.55
17060;BME280;8646;49.716;9.266;2023-04-12T04:22:18;99442.41;;;8.48;89.34
17060;BME280;8646;49.716;9.266;2023-04-12T04:25:22;99432.25;;;8.53;88.92
17060;BME280;8646;49.716;9.266;2023-04-12T04:28:30;99427.34;;;8.61;88.82
17060;BME280;8646;49.716;9.266;2023-04-12T04:31:35;99424.44;;;8.66;88.47
17060;BME280;8646;49.716;9.266;2023-04-12T04:34:39;99411.47;;;8.74;88.22
17060;BME280;8646;49.716;9.266;2023-04-12T04:37:42;99415.66;;;8.79;88.13
17060;BME280;8646;49.716;9.266;2023-04-12T04:40:45;99410.13;;;8.83;87.69
17060;BME280;8646;49.716;9.266;2023-04-12T04:43:48;99406.31;;;8.87;87.60
17060;BME280;8646;49.716;9.266;2023-04-12T04:46:51;99386.09;;;8.95;87.27
17060;BME280;8646;49.716;9.266;2023-04-12T04:49:58;99385.88;;;9.00;87.18
17060;BME280;8646;49.716;9.266;2023-04-12T04:53:01;99372.69;;;8.94;87.05
17060;BME280;8646;49.716;9.266;2023-04-12T04:56:04;99379.81;;;8.95;87.09
17060;BME280;8646;49.716;9.266;2023-04-12T04:59:07;99369.84;;;8.97;86.92
17060;BME280;8646;49.716;9.266;2023-04-12T05:02:10;99375.84;;;9.02;87.09
17060;BME280;8646;49.716;9.266;2023-04-12T05:05:14;99365.88;;;9.04;86.93
17060;BME280;8646;49.716;9.266;2023-04-12T05:08:17;99362.06;;;9.08;86.56
17060;BME280;8646;49.716;9.266;2023-04-12T05:11:20;99363.66;;;9.12;86.72
17060;BME280;8646;49.716;9.266;2023-04-12T05:14:22;99366.28;;;9.13;86.69
17060;BME280;8646;49.716;9.266;2023-04-12T05:17:42;99356.50;;;9.11;86.69
17060;BME280;8646;49.716;9.266;2023-04-12T05:20:46;99361.91;;;9.11;86.77
17060;BME280;8646;49.716;9.266;2023-04-12T05:23:49;99355.53;;;9.12;86.60
17060;BME280;8646;49.716;9.266;2023-04-12T05:26:52;99350.94;;;9.14;86.64
17060;BME280;8646;49.716;9.266;2023-04-12T05:29:55;99349.75;;;9.19;86.88
17060;BME280;8646;49.716;9.266;2023-04-12T05:32:58;99337.84;;;9.24;87.43
17060;BME280;8646;49.716;9.266;2023-04-12T05:36:03;99334.56;;;9.17;88.00
17060;BME280;8646;49.716;9.266;2023-04-12T05:39:06;99331.25;;;9.12;88.63
17060;BME280;8646;49.716;9.266;2023-04-12T05:42:09;99324.38;;;9.06;89.31
17060;BME280;8646;49.716;9.266;2023-04-12T05:45:12;99320.38;;;8.96;90.00
17060;BME280;8646;49.716;9.266;2023-04-12T05:48:14;99310.78;;;8.91;90.14
17060;BME280;8646;49.716;9.266;2023-04-12T05:51:20;99310.63;;;8.94;90.03
17060;BME280;8646;49.716;9.266;2023-04-12T05:54:40;99306.50;;;9.04;89.81
17060;BME280;8646;49.716;9.266;2023-04-12T05:57:44;99300.28;;;9.02;89.77
17060;BME280;8646;49.716;9.266;2023-04-12T06:00:48;99298.41;;;9.04;90.36
17060;BME280;8646;49.716;9.266;2023-04-12T06:03:50;99293.81;;;9.06;91.44
17060;BME280;8646;49.716;9.266;2023-04-12T06:06:55;99297.06;;;8.95;91.63
17060;BME280;8646;49.716;9.266;2023-04-12T06:09:58;99286.13;;;8.98;91.53
17060;BME280;8646;49.716;9.266;2023-04-12T06:13:01;99279.84;;;8.98;91.63
17060;BME280;8646;49.716;9.266;2023-04-12T06:16:04;99269.50;;;9.06;91.66
17060;BME280;8646;49.716;9.266;2023-04-12T06:19:07;99261.09;;;9.12;90.90
17060;BME280;8646;49.716;9.266;2023-04-12T06:22:12;99264.50;;;9.15;90.79
17060;BME280;8646;49.716;9.266;2023-04-12T06:25:15;99242.81;;;9.17;90.61
17060;BME280;8646;49.716;9.266;2023-04-12T06:28:18;99238.13;;;9.21;90.94
17060;BME280;8646;49.716;9.266;2023-04-12T06:31:21;99237.97;;;9.24;90.84
17060;BME280;8646;49.716;9.266;2023-04-12T06:34:24;99233.91;;;9.32;90.28
17060;BME280;8646;49.716;9.266;2023-04-12T06:37:28;99231.97;;;9.34;89.93
17060;BME280;8646;49.716;9.266;2023-04-12T06:40:31;99220.50;;;9.46;89.52
17060;BME280;8646;49.716;9.266;2023-04-12T06:43:34;99200.53;;;9.49;89.71
17060;BME280;8646;49.716;9.266;2023-04-12T06:46:37;99208.56;;;9.50;89.84
17060;BME280;8646;49.716;9.266;2023-04-12T06:49:40;99200.91;;;9.58;89.50
17060;BME280;8646;49.716;9.266;2023-04-12T06:52:44;99190.72;;;9.64;89.16
17060;BME280;8646;49.716;9.266;2023-04-12T06:55:48;99188.63;;;9.69;88.93
17060;BME280;8646;49.716;9.266;2023-04-12T06:58:51;99182.09;;;9.73;88.56
17060;BME280;8646;49.716;9.266;2023-04-12T07:01:54;99163.78;;;9.78;88.44
17060;BME280;8646;49.716;9.266;2023-04-12T07:04:57;99161.88;;;9.80;88.57
17060;BME280;8646;49.716;9.266;2023-04-12T07:08:01;99145.97;;;9.89;87.90
17060;BME280;8646;49.716;9.266;2023-04-12T07:11:04;99134.91;;;9.94;87.38
17060;BME280;8646;49.716;9.266;2023-04-12T07:14:22;99139.38;;;9.95;87.33
17060;BME280;8646;49.716;9.266;2023-04-12T07:17:24;99133.00;;;9.96;87.44
17060;BME280;8646;49.716;9.266;2023-04-12T07:20:28;99126.63;;;9.97;87.75
17060;BME280;8646;49.716;9.266;2023-04-12T07:23:32;99122.19;;;9.96;87.91
17060;BME280;8646;49.716;9.266;2023-04-12T07:26:35;99124.59;;;10.01;88.11
17060;BME280;8646;49.716;9.266;2023-04-12T07:29:37;99116.66;;;9.98;88.06
17060;BME280;8646;49.716;9.266;2023-04-12T07:32:40;99116.50;;;10.01;88.13
17060;BME280;8646;49.716;9.266;2023-04-12T07:35:43;99113.00;;;9.99;88.35
17060;BME280;8646;49.716;9.266;2023-04-12T07:38:47;99106.56;;;10.01;88.23
17060;BME280;8646;49.716;9.266;2023-04-12T07:41:56;99102.63;;;10.07;88.21
17060;BME280;8646;49.716;9.266;2023-04-12T07:44:58;99092.41;;;10.12;87.89
17060;BME280;8646;49.716;9.266;2023-04-12T07:48:02;99095.69;;;10.17;88.04
17060;BME280;8646;49.716;9.266;2023-04-12T07:51:06;99080.72;;;10.27;87.82
17060;BME280;8646;49.716;9.266;2023-04-12T07:54:10;99061.13;;;10.38;87.47
17060;BME280;8646;49.716;9.266;2023-04-12T07:57:13;99057.06;;;10.45;87.43
17060;BME280;8646;49.716;9.266;2023-04-12T08:00:17;99051.06;;;10.40;87.29
17060;BME280;8646;49.716;9.266;2023-04-12T08:03:20;99055.13;;;10.47;87.26
17060;BME280;8646;49.716;9.266;2023-04-12T08:06:23;99045.97;;;10.49;87.43
17060;BME280;8646;49.716;9.266;2023-04-12T08:09:32;98989.25;;;10.33;87.34
17060;BME280;8646;49.716;9.266;2023-04-12T08:12:35;99017.81;;;10.80;86.86
17060;BME280;8646;49.716;9.266;2023-04-12T08:15:38;99012.66;;;11.04;86.50
17060;BME280;8646;49.716;9.266;2023-04-12T08:18:41;99001.09;;;11.29;86.26
17060;BME280;8646;49.716;9.266;2023-04-12T08:21:44;99007.47;;;11.55;85.73
17060;BME280;8646;49.716;9.266;2023-04-12T08:24:48;98987.22;;;11.74;84.96
17060;BME280;8646;49.716;9.266;2023-04-12T08:27:51;98991.56;;;11.90;84.89
17060;BME280;8646;49.716;9.266;2023-04-12T08:30:54;98976.19;;;12.03;84.56
17060;BME280;8646;49.716;9.266;2023-04-12T08:33:57;98968.47;;;11.97;84.08
17060;BME280;8646;49.716;9.266;2023-04-12T08:37:00;98971.63;;;11.91;83.77
17060;BME280;8646;49.716;9.266;2023-04-12T08:40:08;98967.72;;;11.82;83.88
17060;BME280;8646;49.716;9.266;2023-04-12T08:43:11;98968.25;;;11.74;84.43
17060;BME280;8646;49.716;9.266;2023-04-12T08:46:15;98964.19;;;11.67;84.68
17060;BME280;8646;49.716;9.266;2023-04-12T08:49:18;98951.59;;;11.66;84.63
17060;BME280;8646;49.716;9.266;2023-04-12T08:52:23;98942.19;;;11.72;84.45
17060;BME280;8646;49.716;9.266;2023-04-12T08:55:27;98947.50;;;11.73;84.73
17060;BME280;8646;49.716;9.266;2023-04-12T08:58:30;98942.97;;;11.87;84.65
17060;BME280;8646;49.716;9.266;2023-04-12T09:01:33;98934.00;;;11.99;84.13
17060;BME280;8646;49.716;9.266;2023-04-12T09:04:46;98924.91;;;12.12;83.81
17060;BME280;8646;49.716;9.266;2023-04-12T09:07:50;98915.66;;;12.28;83.83
17060;BME280;8646;49.716;9.266;2023-04-12T09:10:54;98913.69;;;12.42;82.98
17060;BME280;8646;49.716;9.266;2023-04-12T09:13:57;98899.25;;;12.54;82.50
17060;BME280;8646;49.716;9.266;2023-04-12T09:17:01;98895.72;;;12.65;82.23
17060;BME280;8646;49.716;9.266;2023-04-12T09:20:20;98893.66;;;12.69;82.35
17060;BME280;8646;49.716;9.266;2023-04-12T09:23:25;98890.84;;;12.57;82.37
17060;BME280;8646;49.716;9.266;2023-04-12T09:26:29;98894.22;;;12.61;82.57
17060;BME280;8646;49.716;9.266;2023-04-12T09:29:32;98902.78;;;12.68;82.33
17060;BME280;8646;49.716;9.266;2023-04-12T09:32:36;98887.56;;;12.78;82.33
17060;BME280;8646;49.716;9.266;2023-04-12T09:35:38;98886.88;;;12.87;82.25
17060;BME280;8646;49.716;9.266;2023-04-12T09:38:57;98887.69;;;13.00;82.30
17060;BME280;8646;49.716;9.266;2023-04-12T09:42:07;98878.09;;;13.07;82.24
17060;BME280;8646;49.716;9.266;2023-04-12T09:45:33;98867.75;;;13.12;81.86
17060;BME280;8646;49.716;9.266;2023-04-12T09:48:38;98853.41;;;13.34;81.55
17060;BME280;8646;49.716;9.266;2023-04-12T09:51:41;98861.91;;;13.64;81.68
17060;BME280;8646;49.716;9.266;2023-04-12T09:54:45;98852.19;;;13.84;81.42
17060;BME280;8646;49.716;9.266;2023-04-12T09:57:50;98843.81;;;14.09;80.96
17060;BME280;8646;49.716;9.266;2023-04-12T10:00:55;98843.34;;;14.49;80.23
17060;BME280;8646;49.716;9.266;2023-04-12T10:04:01;98834.94;;;14.95;79.28
17060;BME280;8646;49.716;9.266;2023-04-12T10:07:06;98829.81;;;15.34;78.29
17060;BME280;8646;49.716;9.266;2023-04-12T10:10:09;98818.72;;;15.46;77.45
17060;BME280;8646;49.716;9.266;2023-04-12T10:13:16;98808.88;;;15.34;76.48
17060;BME280;8646;49.716;9.266;2023-04-12T10:16:20;98802.75;;;15.21;75.47
17060;BME280;8646;49.716;9.266;2023-04-12T10:19:25;98796.19;;;15.23;75.22
17060;BME280;8646;49.716;9.266;2023-04-12T10:22:28;98776.97;;;15.25;75.52
17060;BME280;8646;49.716;9.266;2023-04-12T10:25:31;98782.38;;;15.15;75.73
17060;BME280;8646;49.716;9.266;2023-04-12T10:28:35;98789.59;;;15.05;75.73
17060;BME280;8646;49.716;9.266;2023-04-12T10:31:39;98795.03;;;15.05;76.24
17060;BME280;8646;49.716;9.266;2023-04-12T10:34:42;98781.41;;;15.05;76.27
17060;BME280;8646;49.716;9.266;2023-04-12T10:37:58;98782.75;;;15.11;76.50
17060;BME280;8646;49.716;9.266;2023-04-12T10:41:09;98772.59;;;15.13;76.30
17060;BME280;8646;49.716;9.266;2023-04-12T10:44:24;98777.69;;;15.06;75.97
17060;BME280;8646;49.716;9.266;2023-04-12T10:47:55;98771.16;;;14.98;75.96
17060;BME280;8646;49.716;9.266;2023-04-12T10:51:13;98766.66;;;14.76;75.72
17060;BME280;8646;49.716;9.266;2023-04-12T10:54:30;98767.69;;;14.64;76.76
17060;BME280;8646;49.716;9.266;2023-04-12T10:57:41;98768.09;;;14.59;76.92
17060;BME280;8646;49.716;9.266;2023-04-12T11:01:12;98768.03;;;14.70;77.09
17060;BME280;8646;49.716;9.266;2023-04-12T11:04:19;98774.44;;;14.92;76.76
17060;BME280;8646;49.716;9.266;2023-04-12T11:07:22;98758.22;;;15.11;76.82
17060;BME280;8646;49.716;9.266;2023-04-12T11:10:40;98764.16;;;15.16;76.45
17060;BME280;8646;49.716;9.266;2023-04-12T11:13:43;98758.31;;;15.20;76.53
17060;BME280;8646;49.716;9.266;2023-04-12T11:17:23;98767.09;;;15.24;76.42
17060;BME280;8646;49.716;9.266;2023-04-12T11:20:26;98752.31;;;15.26;76.46
17060;BME280;8646;49.716;9.266;2023-04-12T11:23:29;98758.56;;;15.38;76.33
17060;BME280;8646;49.716;9.266;2023-04-12T11:26:33;98755.06;;;15.47;76.78
17060;BME280;8646;49.716;9.266;2023-04-12T11:29:38;98746.00;;;15.68;76.30
17060;BME280;8646;49.716;9.266;2023-04-12T11:32:43;98740.66;;;15.87;76.06
17060;BME280;8646;49.716;9.266;2023-04-12T11:35:47;98737.69;;;15.99;75.36
17060;BME280;8646;49.716;9.266;2023-04-12T11:38:50;98736.09;;;15.97;75.45
17060;BME280;8646;49.716;9.266;2023-04-12T11:41:53;98733.19;;;15.89;75.81
17060;BME280;8646;49.716;9.266;2023-04-12T11:44:56;98724.25;;;15.77;75.79
17060;BME280;8646;49.716;9.266;2023-04-12T11:48:08;98735.69;;;15.50;75.55
17060;BME280;8646;49.716;9.266;2023-04-12T11:51:18;98729.31;;;15.19;76.16
17060;BME280;8646;49.716;9.266;2023-04-12T11:54:27;98722.94;;;15.09;76.38
17060;BME280;8646;49.716;9.266;2023-04-12T11:57:30;98729.03;;;15.02;76.82
17060;BME280;8646;49.716;9.266;2023-04-12T12:00:33;98719.66;;;14.95;77.56
17060;BME280;8646;49.716;9.266;2023-04-12T12:03:37;98721.81;;;14.91;77.56
17060;BME280;8646;49.716;9.266;2023-04-12T12:06:41;98713.34;;;14.94;77.72
17060;BME280;8646;49.716;9.266;2023-04-12T12:09:44;98712.66;;;15.13;77.19
17060;BME280;8646;49.716;9.266;2023-04-12T12:12:48;98705.00;;;15.27;77.33
17060;BME280;8646;49.716;9.266;2023-04-12T12:15:51;98695.59;;;15.41;76.64
17060;BME280;8646;49.716;9.266;2023-04-12T12:18:56;98686.47;;;15.52;76.08
17060;BME280;8646;49.716;9.266;2023-04-12T12:22:08;98684.03;;;15.70;76.04
17060;BME280;8646;49.716;9.266;2023-04-12T12:25:11;98691.94;;;15.73;76.00
17060;BME280;8646;49.716;9.266;2023-04-12T12:28:14;98673.41;;;15.76;75.67
17060;BME280;8646;49.716;9.266;2023-04-12T12:31:20;98673.38;;;15.97;75.11
17060;BME280;8646;49.716;9.266;2023-04-12T12:34:24;98661.75;;;16.14;74.81
17060;BME280;8646;49.716;9.266;2023-04-12T12:37:28;98664.97;;;16.29;74.27
17060;BME280;8646;49.716;9.266;2023-04-12T12:40:31;98659.22;;;16.51;74.02
17060;BME280;8646;49.716;9.266;2023-04-12T12:43:34;98653.22;;;16.67;73.45
17060;BME280;8646;49.716;9.266;2023-04-12T12:46:36;98649.06;;;16.72;72.62
17060;BME280;8646;49.716;9.266;2023-04-12T12:49:43;98651.38;;;16.77;72.35
17060;BME280;8646;49.716;9.266;2023-04-12T12:52:46;98648.31;;;16.70;72.17
17060;BME280;8646;49.716;9.266;2023-04-12T12:55:49;98642.91;;;16.61;72.02
17060;BME280;8646;49.716;9.266;2023-04-12T12:58:52;98645.88;;;16.58;71.82
17060;BME280;8646;49.716;9.266;2023-04-12T13:01:54;98642.00;;;16.51;71.38
17060;BME280;8646;49.716;9.266;2023-04-12T13:04:59;98637.94;;;16.55;71.55
17060;BME280;8646;49.716;9.266;2023-04-12T13:08:03;98646.00;;;16.56;71.83
17060;BME280;8646;49.716;9.266;2023-04-12T13:11:06;98643.41;;;16.55;71.52
17060;BME280;8646;49.716;9.266;2023-04-12T13:14:09;98632.66;;;16.82;70.75
17060;BME280;8646;49.716;9.266;2023-04-12T13:17:12;98627.06;;;17.40;69.44
17060;BME280;8646;49.716;9.266;2023-04-12T13:20:16;98609.59;;;17.87;68.52
17060;BME280;8646;49.716;9.266;2023-04-12T13:23:19;98619.41;;;17.90;67.55
17060;BME280;8646;49.716;9.266;2023-04-12T13:26:21;98613.44;;;17.95;67.23
17060;BME280;8646;49.716;9.266;2023-04-12T13:29:26;98587.63;;;17.79;67.35
17060;BME280;8646;49.716;9.266;2023-04-12T13:32:29;98600.44;;;17.79;67.06
17060;BME280;8646;49.716;9.266;2023-04-12T13:35:33;98604.09;;;17.60;67.34
17060;BME280;8646;49.716;9.266;2023-04-12T13:38:36;98602.47;;;17.40;67.94
17060;BME280;8646;49.716;9.266;2023-04-12T13:41:39;98600.78;;;17.20;68.07
17060;BME280;8646;49.716;9.266;2023-04-12T13:44:41;98606.19;;;16.92;69.15
17060;BME280;8646;49.716;9.266;2023-04-12T13:47:45;98597.47;;;16.69;69.74
17060;BME280;8646;49.716;9.266;2023-04-12T13:50:49;98596.72;;;16.58;69.82
17060;BME280;8646;49.716;9.266;2023-04-12T13:53:55;98592.88;;;16.70;70.24
17060;BME280;8646;49.716;9.266;2023-04-12T13:56:58;98583.97;;;16.68;70.52
17060;BME280;8646;49.716;9.266;2023-04-12T14:00:01;98585.38;;;16.82;71.03
17060;BME280;8646;49.716;9.266;2023-04-12T14:03:04;98576.91;;;17.22;70.38
17060;BME280;8646;49.716;9.266;2023-04-12T14:06:10;98566.06;;;17.39;69.18
17060;BME280;8646;49.716;9.266;2023-04-12T14:09:22;98556.91;;;17.58;68.24
17060;BME280;8646;49.716;9.266;2023-04-12T14:12:26;98558.06;;;17.65;67.84
17060;BME280;8646;49.716;9.266;2023-04-12T14:15:29;98552.03;;;17.52;68.74
17060;BME280;8646;49.716;9.266;2023-04-12T14:18:31;98551.13;;;17.61;68.85
17060;BME280;8646;49.716;9.266;2023-04-12T14:21:36;98560.97;;;17.81;68.85
17060;BME280;8646;49.716;9.266;2023-04-12T14:24:38;98552.53;;;17.92;68.85
17060;BME280;8646;49.716;9.266;2023-04-12T14:27:41;98556.41;;;18.00;68.59
17060;BME280;8646;49.716;9.266;2023-04-12T14:30:45;98556.06;;;18.03;68.67
17060;BME280;8646;49.716;9.266;2023-04-12T14:33:51;98555.06;;;18.04;69.04
17060;BME280;8646;49.716;9.266;2023-04-12T14:36:55;98564.19;;;17.95;69.09
17060;BME280;8646;49.716;9.266;2023-04-12T14:39:58;98564.91;;;17.69;68.90
17060;BME280;8646;49.716;9.266;2023-04-12T14:43:02;98570.38;;;17.42;69.34
17060;BME280;8646;49.716;9.266;2023-04-12T14:46:05;98563.81;;;17.25;69.96
17060;BME280;8646;49.716;9.266;2023-04-12T14:49:08;98546.69;;;16.86;69.61
17060;BME280;8646;49.716;9.266;2023-04-12T14:52:12;98566.25;;;16.72;69.87
17060;BME280;8646;49.716;9.266;2023-04-12T14:55:15;98563.22;;;16.56;69.77
17060;BME280;8646;49.716;9.266;2023-04-12T14:58:18;98571.28;;;16.38;70.06
17060;BME280;8646;49.716;9.266;2023-04-12T15:01:21;98594.72;;;16.21;70.04
17060;BME280;8646;49.716;9.266;2023-04-12T15:04:24;98596.69;;;16.00;69.98
17060;BME280;8646;49.716;9.266;2023-04-12T15:07:29;98595.94;;;15.79;70.23
17060;BME280;8646;49.716;9.266;2023-04-12T15:10:31;98611.97;;;15.62;69.90
17060;BME280;8646;49.716;9.266;2023-04-12T15:13:35;98635.63;;;15.41;70.31
17060;BME280;8646;49.716;9.266;2023-04-12T15:16:38;98626.38;;;15.23;71.01
17060;BME280;8646;49.716;9.266;2023-04-12T15:19:43;98614.31;;;15.16;71.67
17060;BME280;8646;49.716;9.266;2023-04-12T15:22:47;98621.19;;;15.20;72.02
17060;BME280;8646;49.716;9.266;2023-04-12T15:25:57;98638.47;;;15.30;72.61
17060;BME280;8646;49.716;9.266;2023-04-12T15:29:01;98643.50;;;15.35;72.15
17060;BME280;8646;49.716;9.266;2023-04-12T15:32:04;98647.38;;;15.32;71.99
17060;BME280;8646;49.716;9.266;2023-04-12T15:35:09;98638.47;;;15.30;72.17
17060;BME280;8646;49.716;9.266;2023-04-12T15:38:16;98601.41;;;15.18;72.27
17060;BME280;8646;49.716;9.266;2023-04-12T15:41:24;98604.66;;;15.42;71.97
17060;BME280;8646;49.716;9.266;2023-04-12T15:44:26;98603.84;;;15.51;71.85
17060;BME280;8646;49.716;9.266;2023-04-12T15:47:32;98604.78;;;15.61;71.40
17060;BME280;8646;49.716;9.266;2023-04-12T15:50:35;98613.19;;;15.89;70.53
17060;BME280;8646;49.716;9.266;2023-04-12T15:53:39;98624.00;;;16.19;70.04
17060;BME280;8646;49.716;9.266;2023-04-12T15:56:43;98612.66;;;16.33;69.20
17060;BME280;8646;49.716;9.266;2023-04-12T15:59:46;98627.03;;;16.35;69.05
17060;BME280;8646;49.716;9.266;2023-04-12T16:02:51;98640.22;;;16.30;69.35
17060;BME280;8646;49.716;9.266;2023-04-12T16:05:58;98641.81;;;16.23;69.42
17060;BME280;8646;49.716;9.266;2023-04-12T16:09:03;98645.25;;;16.16;69.57
17060;BME280;8646;49.716;9.266;2023-04-12T16:12:06;98644.34;;;16.06;69.69
17060;BME280;8646;49.716;9.266;2023-04-12T16:15:09;98626.53;;;15.92;70.03
17060;BME280;8646;49.716;9.266;2023-04-12T16:18:12;98636.25;;;15.75;70.16
17060;BME280;8646;49.716;9.266;2023-04-12T16:21:16;98632.13;;;15.81;69.90
17060;BME280;8646;49.716;9.266;2023-04-12T16:24:21;98623.22;;;15.98;69.63
17060;BME280;8646;49.716;9.266;2023-04-12T16:27:24;98623.00;;;16.20;68.89
17060;BME280;8646;49.716;9.266;2023-04-12T16:30:30;98616.69;;;16.29;68.47
17060;BME280;8646;49.716;9.266;2023-04-12T16:33:33;98625.88;;;16.28;68.09
17060;BME280;8646;49.716;9.266;2023-04-12T16:36:36;98630.19;;;16.21;68.22
17060;BME280;8646;49.716;9.266;2023-04-12T16:39:40;98621.25;;;16.10;67.83